sensor_id;sensor_type;location;lat;lon;timestamp;P1;durP1;ratioP1;P2;durP2;ratioP2
4089;SDS011;2059;48.538;12.146;2022-08-19T00:01:40;18.67;;;16.83;;
4089;SDS011;2059;48.538;12.146;2022-08-19T00:06:44;17.67;;;16.17;;
4089;SDS011;2059;48.538;12.146;2022-08-19T00:11:48;19.40;;;17.60;;
4089;SDS011;2059;48.538;12.146;2022-08-19T00:16:51;18.90;;;17.30;;
4089;SDS011;2059;48.538;12.146;2022-08-19T00:21:54;18.40;;;16.80;;
4089;SDS011;2059;48.538;12.146;2022-08-19T00:26:57;17.23;;;15.70;;
4089;SDS011;2059;48.538;12.146;2022-08-19T00:32:01;19.73;;;17.73;;
4089;SDS011;2059;48.538;12.146;2022-08-19T00:37:04;21.40;;;19.20;;
4089;SDS011;2059;48.538;12.146;2022-08-19T00:42:07;21.10;;;19.20;;
4089;SDS011;2059;48.538;12.146;2022-08-19T00:47:09;20.10;;;18.00;;
4089;SDS011;2059;48.538;12.146;2022-08-19T00:52:12;20.70;;;18.80;;
4089;SDS011;2059;48.538;12.146;2022-08-19T00:57:18;21.00;;;19.10;;
4089;SDS011;2059;48.538;12.146;2022-08-19T01:02:27;21.53;;;19.53;;
4089;SDS011;2059;48.538;12.146;2022-08-19T01:07:30;20.50;;;18.70;;
4089;SDS011;2059;48.538;12.146;2022-08-19T01:12:33;19.43;;;17.53;;
4089;SDS011;2059;48.538;12.146;2022-08-19T01:17:36;19.53;;;17.73;;
4089;SDS011;2059;48.538;12.146;2022-08-19T01:22:43;19.97;;;18.07;;
4089;SDS011;2059;48.538;12.146;2022-08-19T01:27:47;19.03;;;17.23;;
4089;SDS011;2059;48.538;12.146;2022-08-19T01:32:51;19.13;;;17.20;;
4089;SDS011;2059;48.538;12.146;2022-08-19T01:37:56;18.00;;;16.30;;
4089;SDS011;2059;48.538;12.146;2022-08-19T01:42:59;17.60;;;15.70;;
4089;SDS011;2059;48.538;12.146;2022-08-19T01:48:02;16.40;;;15.00;;
4089;SDS011;2059;48.538;12.146;2022-08-19T01:53:08;17.70;;;16.10;;
4089;SDS011;2059;48.538;12.146;2022-08-19T01:58:12;15.10;;;13.80;;
4089;SDS011;2059;48.538;12.146;2022-08-19T02:03:16;14.40;;;13.10;;
4089;SDS011;2059;48.538;12.146;2022-08-19T02:08:19;15.20;;;13.90;;
4089;SDS011;2059;48.538;12.146;2022-08-19T02:13:21;14.67;;;13.37;;
4089;SDS011;2059;48.538;12.146;2022-08-19T02:18:24;14.03;;;12.83;;
4089;SDS011;2059;48.538;12.146;2022-08-19T02:23:28;15.80;;;14.20;;
4089;SDS011;2059;48.538;12.146;2022-08-19T02:28:30;14.30;;;13.00;;
4089;SDS011;2059;48.538;12.146;2022-08-19T02:33:32;15.07;;;13.53;;
4089;SDS011;2059;48.538;12.146;2022-08-19T02:38:35;14.50;;;13.30;;
4089;SDS011;2059;48.538;12.146;2022-08-19T02:43:37;16.17;;;14.67;;
4089;SDS011;2059;48.538;12.146;2022-08-19T02:48:40;16.30;;;14.90;;
4089;SDS011;2059;48.538;12.146;2022-08-19T02:53:43;16.57;;;15.10;;
4089;SDS011;2059;48.538;12.146;2022-08-19T02:58:45;16.43;;;14.97;;
4089;SDS011;2059;48.538;12.146;2022-08-19T03:03:48;16.10;;;14.43;;
4089;SDS011;2059;48.538;12.146;2022-08-19T03:08:51;14.37;;;13.17;;
4089;SDS011;2059;48.538;12.146;2022-08-19T03:13:54;15.90;;;14.40;;
4089;SDS011;2059;48.538;12.146;2022-08-19T03:18:57;15.10;;;13.70;;
4089;SDS011;2059;48.538;12.146;2022-08-19T03:24:02;12.93;;;11.83;;
4089;SDS011;2059;48.538;12.146;2022-08-19T03:29:06;13.03;;;11.93;;
4089;SDS011;2059;48.538;12.146;2022-08-19T03:34:13;13.23;;;11.93;;
4089;SDS011;2059;48.538;12.146;2022-08-19T03:39:18;13.13;;;11.97;;
4089;SDS011;2059;48.538;12.146;2022-08-19T03:44:21;13.80;;;12.60;;
4089;SDS011;2059;48.538;12.146;2022-08-19T03:49:24;14.57;;;13.33;;
4089;SDS011;2059;48.538;12.146;2022-08-19T03:54:29;13.40;;;12.10;;
4089;SDS011;2059;48.538;12.146;2022-08-19T03:59:31;13.00;;;11.83;;
4089;SDS011;2059;48.538;12.146;2022-08-19T04:04:34;12.40;;;11.40;;
4089;SDS011;2059;48.538;12.146;2022-08-19T04:09:40;12.57;;;11.53;;
4089;SDS011;2059;48.538;12.146;2022-08-19T04:14:42;12.53;;;11.43;;
4089;SDS011;2059;48.538;12.146;2022-08-19T04:19:44;11.90;;;10.90;;
4089;SDS011;2059;48.538;12.146;2022-08-19T04:24:47;11.80;;;10.90;;
4089;SDS011;2059;48.538;12.146;2022-08-19T04:29:49;11.67;;;10.77;;
4089;SDS011;2059;48.538;12.146;2022-08-19T04:34:52;12.00;;;11.00;;
4089;SDS011;2059;48.538;12.146;2022-08-19T04:40:00;11.93;;;10.93;;
4089;SDS011;2059;48.538;12.146;2022-08-19T04:45:20;11.70;;;10.60;;
4089;SDS011;2059;48.538;12.146;2022-08-19T04:50:21;10.97;;;10.17;;
4089;SDS011;2059;48.538;12.146;2022-08-19T04:55:25;10.70;;;9.90;;
4089;SDS011;2059;48.538;12.146;2022-08-19T05:00:26;11.37;;;10.47;;
4089;SDS011;2059;48.538;12.146;2022-08-19T05:05:28;11.20;;;10.30;;
4089;SDS011;2059;48.538;12.146;2022-08-19T05:10:32;11.20;;;9.60;;
4089;SDS011;2059;48.538;12.146;2022-08-19T05:15:36;10.57;;;9.57;;
4089;SDS011;2059;48.538;12.146;2022-08-19T05:20:38;10.70;;;9.90;;
4089;SDS011;2059;48.538;12.146;2022-08-19T05:25:58;11.00;;;10.10;;
4089;SDS011;2059;48.538;12.146;2022-08-19T05:31:00;10.60;;;9.80;;
4089;SDS011;2059;48.538;12.146;2022-08-19T05:36:02;10.10;;;9.40;;
4089;SDS011;2059;48.538;12.146;2022-08-19T05:41:07;10.07;;;9.37;;
4089;SDS011;2059;48.538;12.146;2022-08-19T05:46:15;11.87;;;10.63;;
4089;SDS011;2059;48.538;12.146;2022-08-19T05:51:19;11.13;;;10.23;;
4089;SDS011;2059;48.538;12.146;2022-08-19T05:56:23;11.23;;;10.30;;
4089;SDS011;2059;48.538;12.146;2022-08-19T06:01:26;10.80;;;10.00;;
4089;SDS011;2059;48.538;12.146;2022-08-19T06:06:28;12.60;;;10.00;;
4089;SDS011;2059;48.538;12.146;2022-08-19T06:11:35;10.80;;;10.00;;
4089;SDS011;2059;48.538;12.146;2022-08-19T06:16:38;11.37;;;10.37;;
4089;SDS011;2059;48.538;12.146;2022-08-19T06:21:42;11.50;;;10.30;;
4089;SDS011;2059;48.538;12.146;2022-08-19T06:26:47;13.30;;;12.10;;
4089;SDS011;2059;48.538;12.146;2022-08-19T06:31:51;10.67;;;9.90;;
4089;SDS011;2059;48.538;12.146;2022-08-19T06:36:57;11.53;;;10.53;;
4089;SDS011;2059;48.538;12.146;2022-08-19T06:42:03;11.50;;;10.60;;
4089;SDS011;2059;48.538;12.146;2022-08-19T06:47:09;10.77;;;9.83;;
4089;SDS011;2059;48.538;12.146;2022-08-19T06:52:12;11.93;;;10.50;;
4089;SDS011;2059;48.538;12.146;2022-08-19T06:57:15;10.30;;;9.50;;
4089;SDS011;2059;48.538;12.146;2022-08-19T07:02:18;11.63;;;10.73;;
4089;SDS011;2059;48.538;12.146;2022-08-19T07:07:21;12.00;;;10.93;;
4089;SDS011;2059;48.538;12.146;2022-08-19T07:12:24;12.30;;;11.20;;
4089;SDS011;2059;48.538;12.146;2022-08-19T07:17:26;11.43;;;10.53;;
4089;SDS011;2059;48.538;12.146;2022-08-19T07:22:28;11.43;;;10.53;;
4089;SDS011;2059;48.538;12.146;2022-08-19T07:27:32;12.33;;;11.33;;
4089;SDS011;2059;48.538;12.146;2022-08-19T07:32:43;12.03;;;11.03;;
4089;SDS011;2059;48.538;12.146;2022-08-19T07:37:45;13.50;;;12.30;;
4089;SDS011;2059;48.538;12.146;2022-08-19T07:42:48;14.20;;;13.00;;
4089;SDS011;2059;48.538;12.146;2022-08-19T07:47:49;15.57;;;14.07;;
4089;SDS011;2059;48.538;12.146;2022-08-19T07:52:52;15.33;;;14.03;;
4089;SDS011;2059;48.538;12.146;2022-08-19T07:57:55;14.80;;;13.40;;
4089;SDS011;2059;48.538;12.146;2022-08-19T08:02:57;13.60;;;12.50;;
4089;SDS011;2059;48.538;12.146;2022-08-19T08:07:59;13.60;;;12.30;;
4089;SDS011;2059;48.538;12.146;2022-08-19T08:13:19;13.50;;;12.30;;
4089;SDS011;2059;48.538;12.146;2022-08-19T08:18:21;13.87;;;12.60;;
4089;SDS011;2059;48.538;12.146;2022-08-19T08:23:24;17.17;;;15.43;;
4089;SDS011;2059;48.538;12.146;2022-08-19T08:28:27;17.47;;;15.47;;
4089;SDS011;2059;48.538;12.146;2022-08-19T08:33:30;17.10;;;15.37;;
4089;SDS011;2059;48.538;12.146;2022-08-19T08:38:32;17.00;;;15.30;;
4089;SDS011;2059;48.538;12.146;2022-08-19T08:43:37;23.40;;;21.10;;
4089;SDS011;2059;48.538;12.146;2022-08-19T08:48:44;20.60;;;18.60;;
4089;SDS011;2059;48.538;12.146;2022-08-19T08:53:50;22.07;;;19.73;;
4089;SDS011;2059;48.538;12.146;2022-08-19T08:58:56;19.93;;;17.83;;
4089;SDS011;2059;48.538;12.146;2022-08-19T09:04:03;16.60;;;15.10;;
4089;SDS011;2059;48.538;12.146;2022-08-19T09:09:10;18.67;;;16.87;;
4089;SDS011;2059;48.538;12.146;2022-08-19T09:14:23;16.17;;;14.73;;
4089;SDS011;2059;48.538;12.146;2022-08-19T09:19:34;17.97;;;16.07;;
4089;SDS011;2059;48.538;12.146;2022-08-19T09:24:36;17.97;;;16.10;;
4089;SDS011;2059;48.538;12.146;2022-08-19T09:29:39;17.40;;;15.77;;
4089;SDS011;2059;48.538;12.146;2022-08-19T09:34:41;24.13;;;18.23;;
4089;SDS011;2059;48.538;12.146;2022-08-19T09:39:43;18.03;;;16.13;;
4089;SDS011;2059;48.538;12.146;2022-08-19T09:44:46;20.83;;;16.83;;
4089;SDS011;2059;48.538;12.146;2022-08-19T09:49:48;18.13;;;16.17;;
4089;SDS011;2059;48.538;12.146;2022-08-19T09:54:51;20.10;;;16.40;;
4089;SDS011;2059;48.538;12.146;2022-08-19T09:59:54;17.50;;;15.73;;
4089;SDS011;2059;48.538;12.146;2022-08-19T10:04:56;17.47;;;15.67;;
4089;SDS011;2059;48.538;12.146;2022-08-19T10:10:16;17.67;;;15.97;;
4089;SDS011;2059;48.538;12.146;2022-08-19T10:15:19;17.97;;;16.27;;
4089;SDS011;2059;48.538;12.146;2022-08-19T10:20:21;16.07;;;14.60;;
4089;SDS011;2059;48.538;12.146;2022-08-19T10:25:23;16.73;;;15.13;;
4089;SDS011;2059;48.538;12.146;2022-08-19T10:30:28;16.53;;;14.87;;
4089;SDS011;2059;48.538;12.146;2022-08-19T10:35:29;17.13;;;15.60;;
4089;SDS011;2059;48.538;12.146;2022-08-19T10:40:31;16.60;;;14.83;;
4089;SDS011;2059;48.538;12.146;2022-08-19T10:45:34;18.07;;;16.33;;
4089;SDS011;2059;48.538;12.146;2022-08-19T10:50:37;17.73;;;15.90;;
4089;SDS011;2059;48.538;12.146;2022-08-19T10:55:56;20.10;;;18.00;;
4089;SDS011;2059;48.538;12.146;2022-08-19T11:01:20;20.30;;;15.93;;
4089;SDS011;2059;48.538;12.146;2022-08-19T11:06:23;18.77;;;16.87;;
4089;SDS011;2059;48.538;12.146;2022-08-19T11:11:26;18.83;;;16.90;;
4089;SDS011;2059;48.538;12.146;2022-08-19T11:16:29;19.60;;;17.70;;
4089;SDS011;2059;48.538;12.146;2022-08-19T11:21:33;20.50;;;18.40;;
4089;SDS011;2059;48.538;12.146;2022-08-19T11:26:36;21.00;;;18.80;;
4089;SDS011;2059;48.538;12.146;2022-08-19T11:31:41;22.80;;;18.80;;
4089;SDS011;2059;48.538;12.146;2022-08-19T11:36:44;21.00;;;18.90;;
4089;SDS011;2059;48.538;12.146;2022-08-19T11:41:48;20.23;;;18.33;;
4089;SDS011;2059;48.538;12.146;2022-08-19T11:46:51;20.17;;;18.07;;
4089;SDS011;2059;48.538;12.146;2022-08-19T11:51:53;20.10;;;18.10;;
4089;SDS011;2059;48.538;12.146;2022-08-19T11:56:55;16.13;;;14.53;;
4089;SDS011;2059;48.538;12.146;2022-08-19T12:01:58;16.97;;;15.27;;
4089;SDS011;2059;48.538;12.146;2022-08-19T12:07:00;14.53;;;13.23;;
4089;SDS011;2059;48.538;12.146;2022-08-19T12:12:03;16.10;;;14.50;;
4089;SDS011;2059;48.538;12.146;2022-08-19T12:17:06;14.80;;;13.30;;
4089;SDS011;2059;48.538;12.146;2022-08-19T12:22:09;11.97;;;10.87;;
4089;SDS011;2059;48.538;12.146;2022-08-19T12:27:10;13.10;;;12.00;;
4089;SDS011;2059;48.538;12.146;2022-08-19T12:32:14;15.67;;;14.33;;
4089;SDS011;2059;48.538;12.146;2022-08-19T12:37:17;15.40;;;13.87;;
4089;SDS011;2059;48.538;12.146;2022-08-19T12:42:19;13.33;;;12.13;;
4089;SDS011;2059;48.538;12.146;2022-08-19T12:47:23;13.03;;;12.03;;
4089;SDS011;2059;48.538;12.146;2022-08-19T12:52:26;12.60;;;11.30;;
4089;SDS011;2059;48.538;12.146;2022-08-19T12:57:28;12.23;;;11.07;;
4089;SDS011;2059;48.538;12.146;2022-08-19T13:02:32;10.77;;;9.80;;
4089;SDS011;2059;48.538;12.146;2022-08-19T13:07:35;10.67;;;9.67;;
4089;SDS011;2059;48.538;12.146;2022-08-19T13:12:37;12.07;;;11.07;;
4089;SDS011;2059;48.538;12.146;2022-08-19T13:17:40;12.63;;;11.53;;
4089;SDS011;2059;48.538;12.146;2022-08-19T13:22:42;11.43;;;10.53;;
4089;SDS011;2059;48.538;12.146;2022-08-19T13:27:45;11.73;;;10.30;;
4089;SDS011;2059;48.538;12.146;2022-08-19T13:32:49;11.80;;;10.80;;
4089;SDS011;2059;48.538;12.146;2022-08-19T13:38:08;12.30;;;11.20;;
4089;SDS011;2059;48.538;12.146;2022-08-19T13:43:11;10.27;;;9.37;;
4089;SDS011;2059;48.538;12.146;2022-08-19T13:48:15;9.73;;;8.93;;
4089;SDS011;2059;48.538;12.146;2022-08-19T13:53:18;9.97;;;9.17;;
4089;SDS011;2059;48.538;12.146;2022-08-19T13:58:20;9.50;;;8.70;;
4089;SDS011;2059;48.538;12.146;2022-08-19T14:03:23;8.03;;;7.43;;
4089;SDS011;2059;48.538;12.146;2022-08-19T14:08:25;9.03;;;8.33;;
4089;SDS011;2059;48.538;12.146;2022-08-19T14:13:28;9.47;;;8.77;;
4089;SDS011;2059;48.538;12.146;2022-08-19T14:18:32;10.20;;;9.43;;
4089;SDS011;2059;48.538;12.146;2022-08-19T14:23:34;8.87;;;8.10;;
4089;SDS011;2059;48.538;12.146;2022-08-19T14:28:36;8.70;;;8.10;;
4089;SDS011;2059;48.538;12.146;2022-08-19T14:33:42;8.63;;;8.03;;
4089;SDS011;2059;48.538;12.146;2022-08-19T14:38:44;8.70;;;8.00;;
4089;SDS011;2059;48.538;12.146;2022-08-19T14:43:46;8.60;;;7.90;;
4089;SDS011;2059;48.538;12.146;2022-08-19T14:48:51;8.20;;;7.53;;
4089;SDS011;2059;48.538;12.146;2022-08-19T14:53:53;8.23;;;7.53;;
4089;SDS011;2059;48.538;12.146;2022-08-19T14:58:56;8.37;;;7.77;;
4089;SDS011;2059;48.538;12.146;2022-08-19T15:04:02;7.70;;;7.20;;
4089;SDS011;2059;48.538;12.146;2022-08-19T15:09:04;7.73;;;7.13;;
4089;SDS011;2059;48.538;12.146;2022-08-19T15:14:06;7.70;;;7.10;;
4089;SDS011;2059;48.538;12.146;2022-08-19T15:19:12;7.17;;;6.70;;
4089;SDS011;2059;48.538;12.146;2022-08-19T15:24:14;7.67;;;7.17;;
4089;SDS011;2059;48.538;12.146;2022-08-19T15:29:17;9.33;;;8.60;;
4089;SDS011;2059;48.538;12.146;2022-08-19T15:34:20;8.33;;;7.83;;
4089;SDS011;2059;48.538;12.146;2022-08-19T15:39:22;7.30;;;6.67;;
4089;SDS011;2059;48.538;12.146;2022-08-19T15:44:24;7.47;;;6.87;;
4089;SDS011;2059;48.538;12.146;2022-08-19T15:49:27;7.47;;;6.97;;
4089;SDS011;2059;48.538;12.146;2022-08-19T15:54:29;7.73;;;7.27;;
4089;SDS011;2059;48.538;12.146;2022-08-19T15:59:31;7.60;;;7.20;;
4089;SDS011;2059;48.538;12.146;2022-08-19T16:04:52;7.27;;;6.87;;
4089;SDS011;2059;48.538;12.146;2022-08-19T16:10:12;5.77;;;5.47;;
4089;SDS011;2059;48.538;12.146;2022-08-19T16:15:14;5.93;;;5.53;;
4089;SDS011;2059;48.538;12.146;2022-08-19T16:20:17;7.17;;;6.77;;
4089;SDS011;2059;48.538;12.146;2022-08-19T16:25:21;8.00;;;7.50;;
4089;SDS011;2059;48.538;12.146;2022-08-19T16:30:26;8.97;;;8.27;;
4089;SDS011;2059;48.538;12.146;2022-08-19T16:35:29;9.30;;;8.60;;
4089;SDS011;2059;48.538;12.146;2022-08-19T16:40:31;8.87;;;8.20;;
4089;SDS011;2059;48.538;12.146;2022-08-19T16:45:34;8.40;;;7.90;;
4089;SDS011;2059;48.538;12.146;2022-08-19T16:50:37;7.37;;;6.80;;
4089;SDS011;2059;48.538;12.146;2022-08-19T16:55:40;6.97;;;6.57;;
4089;SDS011;2059;48.538;12.146;2022-08-19T17:00:43;6.07;;;5.67;;
4089;SDS011;2059;48.538;12.146;2022-08-19T17:05:47;6.17;;;5.77;;
4089;SDS011;2059;48.538;12.146;2022-08-19T17:10:51;6.33;;;5.83;;
4089;SDS011;2059;48.538;12.146;2022-08-19T17:15:55;6.53;;;6.13;;
4089;SDS011;2059;48.538;12.146;2022-08-19T17:20:59;6.87;;;6.33;;
4089;SDS011;2059;48.538;12.146;2022-08-19T17:26:01;9.00;;;8.30;;
4089;SDS011;2059;48.538;12.146;2022-08-19T17:31:04;14.03;;;12.83;;
4089;SDS011;2059;48.538;12.146;2022-08-19T17:36:07;18.30;;;16.57;;
4089;SDS011;2059;48.538;12.146;2022-08-19T17:41:09;18.80;;;17.00;;
4089;SDS011;2059;48.538;12.146;2022-08-19T17:46:12;21.53;;;19.43;;
4089;SDS011;2059;48.538;12.146;2022-08-19T17:51:19;18.03;;;16.33;;
4089;SDS011;2059;48.538;12.146;2022-08-19T17:56:22;15.30;;;13.90;;
4089;SDS011;2059;48.538;12.146;2022-08-19T18:01:25;11.70;;;10.67;;
4089;SDS011;2059;48.538;12.146;2022-08-19T18:06:28;13.63;;;12.53;;
4089;SDS011;2059;48.538;12.146;2022-08-19T18:11:30;10.10;;;9.13;;
4089;SDS011;2059;48.538;12.146;2022-08-19T18:16:32;10.30;;;9.50;;
4089;SDS011;2059;48.538;12.146;2022-08-19T18:21:35;11.30;;;10.07;;
4089;SDS011;2059;48.538;12.146;2022-08-19T18:26:39;7.67;;;7.07;;
4089;SDS011;2059;48.538;12.146;2022-08-19T18:31:40;8.03;;;7.33;;
4089;SDS011;2059;48.538;12.146;2022-08-19T18:36:44;6.77;;;6.27;;
4089;SDS011;2059;48.538;12.146;2022-08-19T18:41:45;6.37;;;5.87;;
4089;SDS011;2059;48.538;12.146;2022-08-19T18:47:05;6.40;;;5.80;;
4089;SDS011;2059;48.538;12.146;2022-08-19T18:52:25;6.60;;;6.00;;
4089;SDS011;2059;48.538;12.146;2022-08-19T18:57:27;6.40;;;5.90;;
4089;SDS011;2059;48.538;12.146;2022-08-19T19:02:29;5.53;;;5.07;;
4089;SDS011;2059;48.538;12.146;2022-08-19T19:07:40;4.23;;;3.93;;
4089;SDS011;2059;48.538;12.146;2022-08-19T19:12:43;4.07;;;3.60;;
4089;SDS011;2059;48.538;12.146;2022-08-19T19:17:45;4.73;;;4.50;;
4089;SDS011;2059;48.538;12.146;2022-08-19T19:22:48;4.00;;;3.80;;
4089;SDS011;2059;48.538;12.146;2022-08-19T19:27:49;4.13;;;3.83;;
4089;SDS011;2059;48.538;12.146;2022-08-19T19:32:53;4.10;;;3.90;;
4089;SDS011;2059;48.538;12.146;2022-08-19T19:37:56;4.53;;;4.30;;
4089;SDS011;2059;48.538;12.146;2022-08-19T19:42:59;4.20;;;4.00;;
4089;SDS011;2059;48.538;12.146;2022-08-19T19:48:04;4.40;;;4.10;;
4089;SDS011;2059;48.538;12.146;2022-08-19T19:53:08;4.37;;;4.07;;
4089;SDS011;2059;48.538;12.146;2022-08-19T19:58:12;4.27;;;3.97;;
4089;SDS011;2059;48.538;12.146;2022-08-19T20:03:14;4.50;;;4.10;;
4089;SDS011;2059;48.538;12.146;2022-08-19T20:08:18;4.93;;;4.53;;
4089;SDS011;2059;48.538;12.146;2022-08-19T20:13:37;4.03;;;3.83;;
4089;SDS011;2059;48.538;12.146;2022-08-19T20:18:39;4.40;;;4.10;;
4089;SDS011;2059;48.538;12.146;2022-08-19T20:23:44;3.83;;;3.63;;
4089;SDS011;2059;48.538;12.146;2022-08-19T20:28:46;4.40;;;4.20;;
4089;SDS011;2059;48.538;12.146;2022-08-19T20:33:48;4.93;;;4.63;;
4089;SDS011;2059;48.538;12.146;2022-08-19T20:38:51;4.73;;;4.43;;
4089;SDS011;2059;48.538;12.146;2022-08-19T20:43:53;6.20;;;5.60;;
4089;SDS011;2059;48.538;12.146;2022-08-19T20:48:55;5.80;;;5.40;;
4089;SDS011;2059;48.538;12.146;2022-08-19T20:53:59;7.00;;;6.50;;
4089;SDS011;2059;48.538;12.146;2022-08-19T20:59:01;6.80;;;6.30;;
4089;SDS011;2059;48.538;12.146;2022-08-19T21:04:09;7.90;;;7.20;;
4089;SDS011;2059;48.538;12.146;2022-08-19T21:09:12;7.80;;;7.20;;
4089;SDS011;2059;48.538;12.146;2022-08-19T21:14:16;8.63;;;7.90;;
4089;SDS011;2059;48.538;12.146;2022-08-19T21:19:18;8.47;;;7.87;;
4089;SDS011;2059;48.538;12.146;2022-08-19T21:24:21;8.77;;;8.07;;
4089;SDS011;2059;48.538;12.146;2022-08-19T21:29:23;8.80;;;8.03;;
4089;SDS011;2059;48.538;12.146;2022-08-19T21:34:24;8.50;;;7.60;;
4089;SDS011;2059;48.538;12.146;2022-08-19T21:39:27;11.23;;;10.43;;
4089;SDS011;2059;48.538;12.146;2022-08-19T21:44:29;8.47;;;7.70;;
4089;SDS011;2059;48.538;12.146;2022-08-19T21:49:32;8.70;;;8.00;;
4089;SDS011;2059;48.538;12.146;2022-08-19T21:54:35;9.07;;;8.20;;
4089;SDS011;2059;48.538;12.146;2022-08-19T21:59:37;11.27;;;10.40;;
4089;SDS011;2059;48.538;12.146;2022-08-19T22:04:39;7.90;;;7.20;;
4089;SDS011;2059;48.538;12.146;2022-08-19T22:09:43;7.67;;;6.97;;
4089;SDS011;2059;48.538;12.146;2022-08-19T22:14:45;8.03;;;7.43;;
4089;SDS011;2059;48.538;12.146;2022-08-19T22:19:47;6.67;;;6.17;;
4089;SDS011;2059;48.538;12.146;2022-08-19T22:24:51;7.00;;;6.50;;
4089;SDS011;2059;48.538;12.146;2022-08-19T22:29:53;7.53;;;7.00;;
4089;SDS011;2059;48.538;12.146;2022-08-19T22:34:56;9.80;;;6.17;;
4089;SDS011;2059;48.538;12.146;2022-08-19T22:40:00;5.83;;;5.43;;
4089;SDS011;2059;48.538;12.146;2022-08-19T22:45:03;6.13;;;5.73;;
4089;SDS011;2059;48.538;12.146;2022-08-19T22:50:06;7.03;;;6.43;;
4089;SDS011;2059;48.538;12.146;2022-08-19T22:55:11;6.30;;;5.50;;
4089;SDS011;2059;48.538;12.146;2022-08-19T23:00:13;6.90;;;6.00;;
4089;SDS011;2059;48.538;12.146;2022-08-19T23:05:16;5.63;;;5.23;;
4089;SDS011;2059;48.538;12.146;2022-08-19T23:10:19;8.90;;;8.30;;
4089;SDS011;2059;48.538;12.146;2022-08-19T23:15:23;8.40;;;5.83;;
4089;SDS011;2059;48.538;12.146;2022-08-19T23:20:28;5.83;;;5.43;;
4089;SDS011;2059;48.538;12.146;2022-08-19T23:25:34;7.50;;;5.53;;
4089;SDS011;2059;48.538;12.146;2022-08-19T23:30:38;6.63;;;6.03;;
4089;SDS011;2059;48.538;12.146;2022-08-19T23:35:44;7.23;;;6.63;;
4089;SDS011;2059;48.538;12.146;2022-08-19T23:40:48;6.30;;;5.57;;
4089;SDS011;2059;48.538;12.146;2022-08-19T23:45:50;6.03;;;5.60;;
4089;SDS011;2059;48.538;12.146;2022-08-19T23:50:52;7.00;;;6.50;;
4089;SDS011;2059;48.538;12.146;2022-08-19T23:55:57;6.80;;;6.30;;
